createdAt,value
2018-06-30T00:02:23.802Z,26.70
2018-06-30T00:04:53.334Z,27.13
2018-06-30T00:07:23.436Z,24.67
2018-06-30T00:09:52.071Z,23.77
2018-06-30T00:12:20.760Z,22.33
2018-06-30T00:14:49.416Z,21.07
2018-06-30T00:17:18.378Z,19.63
2018-06-30T00:19:47.022Z,16.37
2018-06-30T00:22:15.782Z,15.70
2018-06-30T00:24:44.945Z,16.00
2018-06-30T00:27:18.856Z,16.37
2018-06-30T00:29:47.922Z,14.73
2018-06-30T00:32:16.573Z,15.40
2018-06-30T00:34:45.843Z,14.60
2018-06-30T00:37:15.496Z,14.77
2018-06-30T00:39:44.186Z,15.67
2018-06-30T00:42:12.923Z,14.20
2018-06-30T00:44:42.162Z,15.10
2018-06-30T00:47:10.855Z,14.50
2018-06-30T00:49:39.972Z,15.93
2018-06-30T00:52:08.984Z,14.40
2018-06-30T00:54:38.314Z,15.10
2018-06-30T00:57:06.999Z,14.53
2018-06-30T00:59:35.757Z,14.97
2018-06-30T01:02:05.318Z,14.67
2018-06-30T01:04:34.093Z,15.07
2018-06-30T01:07:03.014Z,15.47
2018-06-30T01:09:31.724Z,15.17
2018-06-30T01:12:00.701Z,14.97
2018-06-30T01:14:29.806Z,14.23
2018-06-30T01:16:58.621Z,15.37
2018-06-30T01:19:27.248Z,15.10
2018-06-30T01:21:56.680Z,15.47
2018-06-30T01:24:26.130Z,14.43
2018-06-30T01:26:55.386Z,15.57
2018-06-30T01:29:23.999Z,15.50
2018-06-30T01:31:52.685Z,15.73
2018-06-30T01:34:21.307Z,15.90
2018-06-30T01:36:50.009Z,15.40
2018-06-30T01:39:19.566Z,16.80
2018-06-30T01:41:49.163Z,14.57
2018-06-30T01:44:18.093Z,17.00
2018-06-30T01:46:46.966Z,16.80
2018-06-30T01:49:15.587Z,15.83
2018-06-30T01:51:44.244Z,16.30
2018-06-30T01:54:13.711Z,15.97
2018-06-30T01:56:42.356Z,16.63
2018-06-30T01:59:11.280Z,16.70
2018-06-30T02:01:40.263Z,16.30
2018-06-30T02:04:08.979Z,15.47
2018-06-30T02:06:38.356Z,15.80
2018-06-30T02:09:09.232Z,15.30
2018-06-30T02:11:37.923Z,16.40
2018-06-30T02:14:06.860Z,15.77
2018-06-30T02:16:35.567Z,14.50
2018-06-30T02:19:04.579Z,16.10
2018-06-30T02:21:33.838Z,14.57
2018-06-30T02:24:03.155Z,15.40
2018-06-30T02:26:31.845Z,14.20
2018-06-30T02:29:00.633Z,14.60
2018-06-30T02:31:29.399Z,15.30
2018-06-30T02:33:58.103Z,15.13
2018-06-30T02:36:26.916Z,15.07
2018-06-30T02:38:56.171Z,15.23
2018-06-30T02:41:25.010Z,16.10
2018-06-30T02:43:53.709Z,16.20
2018-06-30T02:46:24.250Z,19.13
2018-06-30T02:48:52.857Z,18.17
2018-06-30T02:51:21.622Z,20.00
2018-06-30T02:53:50.919Z,20.10
2018-06-30T02:56:20.071Z,20.03
2018-06-30T02:58:48.645Z,19.60
2018-06-30T03:01:22.666Z,19.90
2018-06-30T03:03:51.395Z,18.87
2018-06-30T03:06:20.419Z,19.27
2018-06-30T03:08:49.202Z,16.50
2018-06-30T03:11:17.851Z,17.33
2018-06-30T03:13:47.344Z,16.30
2018-06-30T03:16:17.529Z,16.20
2018-06-30T03:18:47.715Z,15.57
2018-06-30T03:21:16.372Z,15.83
2018-06-30T03:23:45.094Z,14.83
2018-06-30T03:26:14.123Z,16.80
2018-06-30T03:28:43.685Z,15.53
2018-06-30T03:31:12.310Z,15.73
2018-06-30T03:33:40.974Z,16.87
2018-06-30T03:36:09.713Z,16.97
2018-06-30T03:38:38.767Z,16.43
2018-06-30T03:41:07.415Z,17.77
2018-06-30T03:43:36.597Z,17.00
2018-06-30T03:46:05.586Z,16.67
2018-06-30T03:48:35.374Z,16.53
2018-06-30T03:51:04.031Z,18.03
2018-06-30T03:53:32.826Z,16.90
2018-06-30T03:56:01.589Z,17.63
2018-06-30T03:58:31.392Z,16.43
2018-06-30T04:01:00.066Z,17.60
2018-06-30T04:03:28.763Z,18.20
2018-06-30T04:05:57.721Z,17.97
2018-06-30T04:08:26.461Z,17.40
2018-06-30T04:10:55.439Z,17.27
2018-06-30T04:13:24.048Z,18.40
2018-06-30T04:15:53.439Z,18.73
2018-06-30T04:18:22.070Z,17.83
2018-06-30T04:20:50.831Z,17.30
2018-06-30T04:23:19.575Z,17.90
2018-06-30T04:25:48.238Z,18.77
2018-06-30T04:28:16.941Z,19.10
2018-06-30T04:30:45.649Z,19.80
2018-06-30T04:33:14.278Z,19.10
2018-06-30T04:35:44.352Z,20.20
2018-06-30T04:38:12.958Z,20.00
2018-06-30T04:40:41.947Z,20.90
2018-06-30T04:43:10.650Z,20.80
2018-06-30T04:45:39.314Z,20.53
2018-06-30T04:48:08.607Z,19.37
2018-06-30T04:50:37.492Z,18.90
2018-06-30T04:53:06.245Z,21.27
2018-06-30T04:55:35.030Z,21.73
2018-06-30T04:58:03.815Z,22.13
2018-06-30T05:00:32.464Z,21.20
2018-06-30T05:03:01.610Z,22.40
2018-06-30T05:05:30.461Z,20.60
2018-06-30T05:07:59.100Z,22.13
2018-06-30T05:10:28.337Z,20.90
2018-06-30T05:12:57.281Z,21.50
2018-06-30T05:15:26.977Z,20.73
2018-06-30T05:17:55.705Z,22.63
2018-06-30T05:20:25.252Z,20.63
2018-06-30T05:22:54.099Z,22.00
2018-06-30T05:25:22.923Z,22.97
2018-06-30T05:27:51.562Z,20.40
2018-06-30T05:30:20.380Z,20.23
2018-06-30T05:32:49.440Z,21.30
2018-06-30T05:35:18.392Z,20.40
2018-06-30T05:37:47.216Z,21.30
2018-06-30T05:40:16.338Z,21.17
2018-06-30T05:42:46.295Z,22.23
2018-06-30T05:45:15.170Z,21.30
2018-06-30T05:47:44.436Z,21.33
2018-06-30T05:50:13.145Z,21.40
2018-06-30T05:52:42.273Z,22.03
2018-06-30T05:55:10.985Z,21.80
2018-06-30T05:57:39.840Z,21.90
2018-06-30T06:00:08.737Z,22.60
2018-06-30T06:02:37.589Z,23.10
2018-06-30T06:05:07.086Z,22.30
2018-06-30T06:07:35.880Z,23.07
2018-06-30T06:10:05.154Z,22.23
2018-06-30T06:12:33.814Z,24.03
2018-06-30T06:15:02.544Z,24.00
2018-06-30T06:17:32.342Z,23.83
2018-06-30T06:20:01.049Z,24.47
2018-06-30T06:22:29.701Z,24.20
2018-06-30T06:24:58.467Z,24.07
2018-06-30T06:27:27.522Z,25.17
2018-06-30T06:29:56.231Z,25.47
2018-06-30T06:32:24.950Z,24.50
2018-06-30T06:34:53.814Z,25.60
2018-06-30T06:37:22.499Z,25.63
2018-06-30T06:39:51.546Z,24.40
2018-06-30T06:42:20.527Z,24.80
2018-06-30T06:44:49.209Z,23.03
2018-06-30T06:47:17.859Z,24.23
2018-06-30T06:49:47.151Z,24.07
2018-06-30T06:52:15.949Z,23.30
2018-06-30T06:54:46.327Z,25.30
2018-06-30T06:57:15.760Z,24.70
2018-06-30T06:59:44.469Z,24.67
2018-06-30T07:02:13.138Z,25.30
2018-06-30T07:04:41.868Z,24.40
2018-06-30T07:07:11.151Z,23.73
2018-06-30T07:09:39.826Z,23.23
2018-06-30T07:12:10.342Z,23.63
2018-06-30T07:14:39.416Z,24.60
2018-06-30T07:17:08.346Z,25.13
2018-06-30T07:19:37.558Z,24.50
2018-06-30T07:22:06.341Z,23.40
2018-06-30T07:24:35.693Z,21.20
2018-06-30T07:27:04.536Z,22.37
2018-06-30T07:29:33.299Z,20.40
2018-06-30T07:32:02.144Z,20.30
2018-06-30T07:34:31.677Z,19.03
2018-06-30T07:37:00.650Z,20.00
2018-06-30T07:39:29.370Z,18.50
2018-06-30T07:41:58.108Z,21.00
2018-06-30T07:44:27.885Z,21.93
2018-06-30T07:46:56.542Z,19.90
2018-06-30T07:49:25.260Z,19.70
2018-06-30T07:51:54.628Z,21.80
2018-06-30T07:54:23.257Z,18.50
2018-06-30T07:56:51.915Z,18.87
2018-06-30T07:59:20.564Z,18.77
2018-06-30T08:01:49.298Z,18.73
2018-06-30T08:04:18.103Z,18.50
2018-06-30T08:06:46.823Z,18.93
2018-06-30T08:09:16.181Z,17.50
2018-06-30T08:11:44.852Z,17.83
2018-06-30T08:14:13.602Z,16.60
2018-06-30T08:16:42.489Z,18.30
2018-06-30T08:19:11.170Z,16.60
2018-06-30T08:21:39.905Z,18.17
2018-06-30T08:24:09.164Z,17.83
2018-06-30T08:26:37.994Z,17.77
2018-06-30T08:29:06.732Z,15.33
2018-06-30T08:31:35.413Z,15.70
2018-06-30T08:34:04.099Z,15.50
2018-06-30T08:36:33.005Z,16.40
2018-06-30T08:39:01.806Z,15.57
2018-06-30T08:41:30.750Z,16.10
2018-06-30T08:43:59.589Z,14.80
2018-06-30T08:46:28.388Z,15.60
2018-06-30T08:48:58.282Z,14.90
2018-06-30T08:51:26.967Z,13.60
2018-06-30T08:53:55.890Z,13.17
2018-06-30T08:56:24.638Z,14.13
2018-06-30T08:58:53.565Z,14.30
2018-06-30T09:01:22.294Z,14.83
2018-06-30T09:03:51.048Z,13.33
2018-06-30T09:06:19.822Z,14.00
2018-06-30T09:08:48.562Z,11.70
2018-06-30T09:11:17.288Z,11.43
2018-06-30T09:13:46.712Z,11.63
2018-06-30T09:16:16.200Z,14.27
2018-06-30T09:18:44.878Z,13.80
2018-06-30T09:21:13.635Z,13.73
2018-06-30T09:23:42.839Z,14.77
2018-06-30T09:26:11.712Z,13.23
2018-06-30T09:28:41.136Z,15.17
2018-06-30T09:31:10.645Z,13.10
2018-06-30T09:33:40.098Z,13.23
2018-06-30T09:36:09.572Z,12.50
2018-06-30T09:38:38.773Z,12.50
2018-06-30T09:41:08.882Z,11.43
2018-06-30T09:43:38.394Z,12.87
2018-06-30T09:46:07.574Z,13.10
2018-06-30T09:48:36.424Z,13.87
2018-06-30T09:51:06.189Z,11.93
2018-06-30T09:53:34.894Z,13.00
2018-06-30T09:56:04.356Z,11.93
2018-06-30T09:58:33.748Z,11.43
2018-06-30T10:01:07.445Z,12.00
2018-06-30T10:03:37.219Z,13.17
2018-06-30T10:06:07.164Z,13.30
2018-06-30T10:08:35.860Z,12.60
2018-06-30T10:11:04.631Z,12.50
2018-06-30T10:13:33.951Z,11.97
2018-06-30T10:16:02.781Z,12.37
2018-06-30T10:18:32.150Z,11.67
2018-06-30T10:21:01.690Z,10.77
2018-06-30T10:23:30.324Z,11.57
2018-06-30T10:25:59.743Z,11.27
2018-06-30T10:28:29.166Z,10.80
2018-06-30T10:30:58.046Z,9.97
2018-06-30T10:33:27.225Z,10.40
2018-06-30T10:35:56.968Z,9.90
2018-06-30T10:38:25.655Z,10.17
2018-06-30T10:40:54.436Z,10.40
2018-06-30T10:43:23.560Z,8.67
2018-06-30T10:45:52.247Z,8.10
2018-06-30T10:48:21.032Z,8.80
2018-06-30T10:50:49.684Z,8.60
2018-06-30T10:53:19.942Z,7.63
2018-06-30T10:55:48.647Z,7.77
2018-06-30T10:58:17.450Z,9.33
2018-06-30T11:00:46.103Z,9.20
2018-06-30T11:03:15.013Z,7.70
2018-06-30T11:05:50.009Z,7.20
2018-06-30T11:08:18.767Z,7.40
2018-06-30T11:10:47.469Z,7.13
2018-06-30T11:13:16.159Z,7.30
2018-06-30T11:15:45.317Z,7.03
2018-06-30T11:18:14.730Z,7.03
2018-06-30T11:20:44.423Z,6.90
2018-06-30T11:23:15.378Z,7.13
2018-06-30T11:25:45.299Z,7.50
2018-06-30T11:28:16.191Z,7.70
2018-06-30T11:30:45.978Z,7.70
2018-06-30T11:33:17.048Z,7.53
2018-06-30T11:35:47.275Z,7.50
2018-06-30T11:38:17.716Z,7.23
2018-06-30T11:40:46.584Z,7.77
2018-06-30T11:43:15.336Z,7.13
2018-06-30T11:45:44.260Z,7.80
2018-06-30T11:48:13.010Z,6.83
2018-06-30T11:50:44.167Z,7.23
2018-06-30T11:53:16.042Z,7.70
2018-06-30T11:55:51.390Z,7.00
2018-06-30T11:58:20.144Z,7.37
2018-06-30T12:00:48.977Z,7.50
2018-06-30T12:03:17.853Z,7.53
2018-06-30T12:05:48.453Z,8.27
2018-06-30T12:08:18.787Z,7.30
2018-06-30T12:10:48.955Z,6.57
2018-06-30T12:13:20.903Z,6.57
2018-06-30T12:15:49.867Z,6.70
2018-06-30T12:18:22.575Z,6.47
2018-06-30T12:20:51.359Z,6.77
2018-06-30T12:23:20.160Z,7.03
2018-06-30T12:25:49.387Z,8.20
2018-06-30T12:28:18.575Z,6.63
2018-06-30T12:30:48.019Z,7.30
2018-06-30T12:33:19.720Z,6.87
2018-06-30T12:35:48.445Z,5.90
2018-06-30T12:38:19.257Z,6.90
2018-06-30T12:40:49.203Z,5.70
2018-06-30T12:43:18.348Z,5.57
2018-06-30T12:45:47.838Z,5.80
2018-06-30T12:48:17.003Z,5.50
2018-06-30T12:50:47.002Z,5.57
2018-06-30T12:53:15.741Z,5.73
2018-06-30T12:55:48.214Z,5.83
2018-06-30T12:58:20.092Z,5.73
2018-06-30T13:00:49.242Z,5.70
2018-06-30T13:03:17.914Z,5.90
2018-06-30T13:05:46.608Z,5.00
2018-06-30T13:08:16.653Z,5.50
2018-06-30T13:10:46.919Z,5.37
2018-06-30T13:13:15.612Z,4.80
2018-06-30T13:15:44.269Z,4.53
2018-06-30T13:18:13.105Z,4.80
2018-06-30T13:20:41.831Z,4.43
2018-06-30T13:23:10.467Z,4.40
2018-06-30T13:25:39.142Z,4.67
2018-06-30T13:28:07.949Z,4.20
2018-06-30T13:30:36.821Z,4.03
2018-06-30T13:33:05.535Z,4.37
2018-06-30T13:35:34.188Z,4.10
2018-06-30T13:38:02.988Z,3.97
2018-06-30T13:40:31.618Z,4.20
2018-06-30T13:43:00.314Z,4.60
2018-06-30T13:45:29.153Z,4.43
2018-06-30T13:47:57.857Z,4.50
2018-06-30T13:50:27.540Z,4.37
2018-06-30T13:52:56.625Z,4.50
2018-06-30T13:55:26.645Z,4.87
2018-06-30T13:57:55.935Z,4.37
2018-06-30T14:00:26.147Z,4.30
2018-06-30T14:02:55.434Z,4.00
2018-06-30T14:05:24.767Z,4.40
2018-06-30T14:07:54.212Z,4.60
2018-06-30T14:10:23.601Z,4.50
2018-06-30T14:12:53.136Z,4.30
2018-06-30T14:15:21.870Z,4.37
2018-06-30T14:17:50.521Z,5.23
2018-06-30T14:20:19.211Z,4.33
2018-06-30T14:22:47.921Z,4.43
2018-06-30T14:25:17.090Z,5.00
2018-06-30T14:27:46.342Z,4.33
2018-06-30T14:30:15.780Z,4.40
2018-06-30T14:32:45.009Z,4.50
2018-06-30T14:35:14.193Z,4.37
2018-06-30T14:37:44.404Z,4.50
2018-06-30T14:40:18.060Z,4.67
2018-06-30T14:42:47.215Z,4.30
2018-06-30T14:45:16.618Z,4.90
2018-06-30T14:47:46.507Z,4.70
2018-06-30T14:50:15.852Z,4.63
2018-06-30T14:52:45.109Z,5.10
2018-06-30T14:55:14.937Z,4.87
2018-06-30T14:57:45.404Z,4.63
2018-06-30T15:00:15.132Z,5.10
2018-06-30T15:02:43.887Z,4.70
2018-06-30T15:05:12.747Z,4.70
2018-06-30T15:07:41.369Z,4.97
2018-06-30T15:10:10.777Z,4.30
2018-06-30T15:12:39.436Z,5.07
2018-06-30T15:15:09.041Z,5.27
2018-06-30T15:17:37.897Z,4.43
2018-06-30T15:20:06.822Z,4.80
2018-06-30T15:22:35.782Z,5.73
2018-06-30T15:25:05.499Z,5.30
2018-06-30T15:27:35.135Z,5.30
2018-06-30T15:30:05.590Z,5.07
2018-06-30T15:32:34.886Z,4.70
2018-06-30T15:35:03.727Z,4.83
2018-06-30T15:37:33.008Z,5.23
2018-06-30T15:40:02.360Z,5.20
2018-06-30T15:42:31.767Z,4.83
2018-06-30T15:45:03.701Z,5.10
2018-06-30T15:47:33.117Z,5.30
2018-06-30T15:50:02.606Z,4.80
2018-06-30T15:52:32.691Z,5.23
2018-06-30T15:55:01.992Z,4.40
2018-06-30T15:57:30.847Z,5.00
2018-06-30T15:59:59.588Z,4.90
2018-06-30T16:02:28.241Z,6.17
2018-06-30T16:04:57.243Z,4.87
2018-06-30T16:07:26.392Z,5.60
2018-06-30T16:09:55.161Z,5.03
2018-06-30T16:12:23.791Z,5.40
2018-06-30T16:14:52.478Z,5.00
2018-06-30T16:17:24.676Z,5.73
2018-06-30T16:19:53.351Z,5.23
2018-06-30T16:22:22.032Z,5.50
2018-06-30T16:24:50.775Z,5.40
2018-06-30T16:27:19.409Z,5.50
2018-06-30T16:29:48.303Z,5.63
2018-06-30T16:32:17.145Z,6.97
2018-06-30T16:34:46.422Z,5.57
2018-06-30T16:37:16.445Z,5.60
2018-06-30T16:39:45.858Z,6.13
2018-06-30T16:42:14.693Z,5.77
2018-06-30T16:44:43.979Z,6.50
2018-06-30T16:47:12.833Z,5.60
2018-06-30T16:49:43.014Z,5.50
2018-06-30T16:52:12.112Z,6.10
2018-06-30T16:54:41.115Z,5.60
2018-06-30T16:57:11.976Z,5.80
2018-06-30T16:59:41.232Z,5.73
2018-06-30T17:02:10.863Z,6.20
2018-06-30T17:04:40.302Z,6.00
2018-06-30T17:07:09.154Z,5.93
2018-06-30T17:09:38.033Z,6.17
2018-06-30T17:12:09.795Z,5.70
2018-06-30T17:14:38.764Z,5.40
2018-06-30T17:17:08.054Z,6.40
2018-06-30T17:19:36.791Z,6.43
2018-06-30T17:22:06.153Z,6.10
2018-06-30T17:24:34.849Z,5.87
2018-06-30T17:27:03.569Z,5.90
2018-06-30T17:29:32.327Z,6.30
2018-06-30T17:32:01.704Z,5.67
2018-06-30T17:34:30.525Z,5.97
2018-06-30T17:36:59.564Z,6.70
2018-06-30T17:39:28.220Z,6.70
2018-06-30T17:41:56.866Z,5.90
2018-06-30T17:44:25.700Z,6.50
2018-06-30T17:46:54.513Z,5.90
2018-06-30T17:49:23.413Z,6.63
2018-06-30T17:51:52.184Z,6.40
2018-06-30T17:54:20.977Z,6.20
2018-06-30T17:56:51.358Z,6.17
2018-06-30T17:59:20.107Z,8.90
2018-06-30T18:01:48.837Z,7.50
2018-06-30T18:04:17.649Z,7.50
2018-06-30T18:06:46.355Z,6.00
2018-06-30T18:09:15.304Z,6.33
2018-06-30T18:11:43.997Z,6.33
2018-06-30T18:14:12.854Z,6.33
2018-06-30T18:16:42.280Z,6.50
2018-06-30T18:19:11.011Z,6.23
2018-06-30T18:21:39.771Z,6.20
2018-06-30T18:24:09.482Z,6.13
2018-06-30T18:26:38.286Z,6.30
2018-06-30T18:29:07.611Z,6.70
2018-06-30T18:31:37.141Z,5.97
2018-06-30T18:34:05.947Z,5.73
2018-06-30T18:36:35.159Z,6.83
2018-06-30T18:39:04.632Z,7.50
2018-06-30T18:41:34.076Z,6.60
2018-06-30T18:44:02.787Z,5.97
2018-06-30T18:46:31.450Z,7.03
2018-06-30T18:49:00.171Z,6.30
2018-06-30T18:51:29.772Z,6.50
2018-06-30T18:53:59.057Z,6.97
2018-06-30T18:56:28.829Z,6.37
2018-06-30T18:58:58.149Z,6.43
2018-06-30T19:01:26.863Z,6.30
2018-06-30T19:03:57.497Z,6.10
2018-06-30T19:06:26.156Z,6.20
2018-06-30T19:08:54.917Z,6.20
2018-06-30T19:11:23.609Z,6.33
2018-06-30T19:13:52.369Z,6.50
2018-06-30T19:16:21.117Z,5.93
2018-06-30T19:18:50.390Z,6.37
2018-06-30T19:21:19.118Z,6.57
2018-06-30T19:23:47.901Z,6.23
2018-06-30T19:26:18.604Z,6.20
2018-06-30T19:28:47.377Z,6.23
2018-06-30T19:31:16.716Z,5.90
2018-06-30T19:33:45.647Z,6.40
2018-06-30T19:36:14.924Z,6.43
2018-06-30T19:38:44.429Z,6.00
2018-06-30T19:41:13.239Z,5.73
2018-06-30T19:43:42.555Z,6.30
2018-06-30T19:46:12.476Z,6.30
2018-06-30T19:48:41.193Z,6.30
2018-06-30T19:51:10.013Z,6.37
2018-06-30T19:53:38.772Z,6.80
2018-06-30T19:56:07.615Z,6.47
2018-06-30T19:58:36.663Z,6.37
2018-06-30T20:01:05.668Z,6.33
2018-06-30T20:03:34.613Z,6.70
2018-06-30T20:06:04.336Z,6.60
2018-06-30T20:08:33.319Z,6.87
2018-06-30T20:11:02.813Z,6.63
2018-06-30T20:13:31.965Z,7.67
2018-06-30T20:16:01.772Z,7.70
2018-06-30T20:18:30.852Z,9.90
2018-06-30T20:20:59.835Z,7.77
2018-06-30T20:23:29.112Z,7.27
2018-06-30T20:25:57.839Z,6.50
2018-06-30T20:28:26.979Z,7.40
2018-06-30T20:30:55.805Z,7.20
2018-06-30T20:33:24.639Z,6.77
2018-06-30T20:35:53.397Z,6.90
2018-06-30T20:38:22.400Z,7.03
2018-06-30T20:40:51.120Z,6.57
2018-06-30T20:43:19.899Z,6.20
2018-06-30T20:45:49.219Z,5.90
2018-06-30T20:48:18.193Z,6.83
2018-06-30T20:50:46.983Z,6.70
2018-06-30T20:53:15.892Z,7.23
2018-06-30T20:55:44.636Z,6.50
2018-06-30T20:58:13.423Z,5.67
2018-06-30T21:00:42.108Z,6.00
2018-06-30T21:03:13.155Z,5.40
2018-06-30T21:05:42.050Z,6.10
2018-06-30T21:08:11.250Z,5.27
2018-06-30T21:10:40.373Z,4.70
2018-06-30T21:13:10.702Z,4.70
2018-06-30T21:15:39.800Z,5.50
2018-06-30T21:18:09.741Z,4.80
2018-06-30T21:20:38.694Z,4.53
2018-06-30T21:23:07.558Z,4.10
2018-06-30T21:25:36.324Z,3.70
2018-06-30T21:28:05.416Z,3.50
2018-06-30T21:30:34.328Z,3.83
2018-06-30T21:33:03.035Z,3.60
2018-06-30T21:35:32.353Z,3.40
2018-06-30T21:38:01.048Z,3.00
2018-06-30T21:40:30.091Z,3.13
2018-06-30T21:42:58.943Z,2.83
2018-06-30T21:45:28.303Z,2.43
2018-06-30T21:47:57.073Z,2.47
2018-06-30T21:50:25.941Z,2.93
2018-06-30T21:52:54.635Z,2.30
2018-06-30T21:55:23.408Z,2.67
2018-06-30T21:57:52.127Z,2.67
2018-06-30T22:00:39.655Z,2.87
2018-06-30T22:03:08.451Z,2.60
2018-06-30T22:05:37.499Z,2.60
2018-06-30T22:08:06.361Z,2.03
2018-06-30T22:10:35.024Z,2.00
2018-06-30T22:13:04.472Z,2.10
2018-06-30T22:15:33.898Z,2.00
2018-06-30T22:18:02.896Z,2.00
2018-06-30T22:20:32.183Z,2.30
2018-06-30T22:23:01.760Z,1.87
2018-06-30T22:25:30.805Z,2.10
2018-06-30T22:27:59.700Z,1.90
2018-06-30T22:30:28.468Z,2.13
2018-06-30T22:32:57.333Z,1.83
2018-06-30T22:35:26.691Z,2.00
2018-06-30T22:37:56.107Z,1.70
2018-06-30T22:40:24.837Z,2.27
2018-06-30T22:42:53.756Z,1.97
2018-06-30T22:45:22.491Z,2.03
2018-06-30T22:47:51.218Z,2.30
2018-06-30T22:50:20.055Z,2.20
2018-06-30T22:52:48.756Z,1.87
2018-06-30T22:55:18.522Z,2.00
2018-06-30T22:57:51.345Z,1.93
2018-06-30T23:00:20.703Z,1.70
2018-06-30T23:02:49.452Z,2.17
2018-06-30T23:05:18.206Z,2.20
2018-06-30T23:07:47.896Z,2.10
2018-06-30T23:10:16.958Z,2.10
2018-06-30T23:12:45.714Z,2.23
2018-06-30T23:15:14.432Z,2.40
2018-06-30T23:17:43.084Z,2.40
2018-06-30T23:20:11.712Z,2.50
2018-06-30T23:22:51.374Z,2.60
2018-06-30T23:25:20.057Z,2.47
2018-06-30T23:27:48.795Z,2.10
2018-06-30T23:30:17.672Z,2.30
2018-06-30T23:32:46.320Z,2.23
2018-06-30T23:35:14.903Z,2.80
2018-06-30T23:37:43.599Z,2.30
2018-06-30T23:40:12.236Z,2.60
2018-06-30T23:42:41.006Z,2.00
2018-06-30T23:45:09.888Z,2.10
2018-06-30T23:47:38.617Z,2.20
2018-06-30T23:50:07.363Z,2.20
2018-06-30T23:52:37.415Z,2.37
2018-06-30T23:55:07.056Z,2.00
2018-06-30T23:57:35.633Z,2.23
